sensor_id;sensor_type;location;lat;lon;timestamp;temperature;humidity
41080;DHT22;26826;50.718;7.114;2023-04-07T00:01:08;7.50;99.90
41080;DHT22;26826;50.718;7.114;2023-04-07T00:11:09;7.50;99.90
41080;DHT22;26826;50.718;7.114;2023-04-07T00:21:09;7.40;99.90
41080;DHT22;26826;50.718;7.114;2023-04-07T00:31:10;7.50;99.90
41080;DHT22;26826;50.718;7.114;2023-04-07T00:41:11;7.60;99.90
41080;DHT22;26826;50.718;7.114;2023-04-07T00:51:12;7.60;99.90
41080;DHT22;26826;50.718;7.114;2023-04-07T01:01:21;7.50;99.90
41080;DHT22;26826;50.718;7.114;2023-04-07T01:11:43;7.60;99.90
41080;DHT22;26826;50.718;7.114;2023-04-07T01:21:48;7.60;99.90
41080;DHT22;26826;50.718;7.114;2023-04-07T01:31:54;7.60;99.90
41080;DHT22;26826;50.718;7.114;2023-04-07T01:41:56;7.80;99.90
41080;DHT22;26826;50.718;7.114;2023-04-07T01:51:57;7.60;99.90
41080;DHT22;26826;50.718;7.114;2023-04-07T02:01:58;7.80;99.90
41080;DHT22;26826;50.718;7.114;2023-04-07T02:12:00;7.90;99.90
41080;DHT22;26826;50.718;7.114;2023-04-07T02:22:04;8.00;99.90
41080;DHT22;26826;50.718;7.114;2023-04-07T02:32:06;8.10;99.90
41080;DHT22;26826;50.718;7.114;2023-04-07T02:42:06;8.10;99.90
41080;DHT22;26826;50.718;7.114;2023-04-07T02:52:07;8.20;99.90
41080;DHT22;26826;50.718;7.114;2023-04-07T03:02:07;8.20;99.90
41080;DHT22;26826;50.718;7.114;2023-04-07T03:12:08;8.20;99.90
41080;DHT22;26826;50.718;7.114;2023-04-07T03:22:08;8.20;99.90
41080;DHT22;26826;50.718;7.114;2023-04-07T03:32:09;8.30;99.90
41080;DHT22;26826;50.718;7.114;2023-04-07T03:42:10;8.20;99.90
41080;DHT22;26826;50.718;7.114;2023-04-07T03:52:10;8.20;99.90
41080;DHT22;26826;50.718;7.114;2023-04-07T04:02:11;8.30;99.90
41080;DHT22;26826;50.718;7.114;2023-04-07T04:12:11;8.30;99.90
41080;DHT22;26826;50.718;7.114;2023-04-07T04:22:12;8.20;99.90
41080;DHT22;26826;50.718;7.114;2023-04-07T04:32:12;8.10;99.90
41080;DHT22;26826;50.718;7.114;2023-04-07T04:42:13;8.10;99.90
41080;DHT22;26826;50.718;7.114;2023-04-07T04:52:13;8.10;99.90
41080;DHT22;26826;50.718;7.114;2023-04-07T05:02:14;8.00;99.90
41080;DHT22;26826;50.718;7.114;2023-04-07T05:12:15;7.90;99.90
41080;DHT22;26826;50.718;7.114;2023-04-07T05:22:15;7.90;99.90
41080;DHT22;26826;50.718;7.114;2023-04-07T05:32:18;7.80;99.90
41080;DHT22;26826;50.718;7.114;2023-04-07T05:42:18;7.80;99.90
41080;DHT22;26826;50.718;7.114;2023-04-07T05:52:19;7.70;99.90
41080;DHT22;26826;50.718;7.114;2023-04-07T06:02:19;7.70;99.90
41080;DHT22;26826;50.718;7.114;2023-04-07T06:12:20;7.70;99.90
41080;DHT22;26826;50.718;7.114;2023-04-07T06:22:20;7.60;99.90
41080;DHT22;26826;50.718;7.114;2023-04-07T06:32:21;7.60;99.90
41080;DHT22;26826;50.718;7.114;2023-04-07T06:42:21;7.60;99.90
41080;DHT22;26826;50.718;7.114;2023-04-07T06:52:22;7.70;99.90
41080;DHT22;26826;50.718;7.114;2023-04-07T07:02:23;7.70;99.90
41080;DHT22;26826;50.718;7.114;2023-04-07T07:12:23;7.70;99.90
41080;DHT22;26826;50.718;7.114;2023-04-07T07:22:24;7.80;99.90
41080;DHT22;26826;50.718;7.114;2023-04-07T07:32:24;7.70;99.90
41080;DHT22;26826;50.718;7.114;2023-04-07T07:42:25;7.80;99.90
41080;DHT22;26826;50.718;7.114;2023-04-07T07:52:26;7.90;99.90
41080;DHT22;26826;50.718;7.114;2023-04-07T08:02:33;7.80;99.90
41080;DHT22;26826;50.718;7.114;2023-04-07T08:12:33;7.80;99.90
41080;DHT22;26826;50.718;7.114;2023-04-07T08:22:34;7.80;99.90
41080;DHT22;26826;50.718;7.114;2023-04-07T08:32:36;7.90;99.90
41080;DHT22;26826;50.718;7.114;2023-04-07T08:42:41;7.90;99.90
41080;DHT22;26826;50.718;7.114;2023-04-07T08:52:53;8.00;99.90
41080;DHT22;26826;50.718;7.114;2023-04-07T09:02:55;8.10;99.90
41080;DHT22;26826;50.718;7.114;2023-04-07T09:12:57;8.20;99.90
41080;DHT22;26826;50.718;7.114;2023-04-07T09:22:58;8.30;99.90
41080;DHT22;26826;50.718;7.114;2023-04-07T09:33:00;8.40;99.90
41080;DHT22;26826;50.718;7.114;2023-04-07T09:43:02;8.50;99.90
41080;DHT22;26826;50.718;7.114;2023-04-07T09:53:03;8.50;99.90
41080;DHT22;26826;50.718;7.114;2023-04-07T10:03:04;8.40;99.90
41080;DHT22;26826;50.718;7.114;2023-04-07T10:13:06;8.60;99.90
41080;DHT22;26826;50.718;7.114;2023-04-07T10:23:19;8.70;99.90
41080;DHT22;26826;50.718;7.114;2023-04-07T10:33:43;8.80;99.90
41080;DHT22;26826;50.718;7.114;2023-04-07T10:43:44;8.70;99.90
41080;DHT22;26826;50.718;7.114;2023-04-07T10:54:16;8.70;99.90
41080;DHT22;26826;50.718;7.114;2023-04-07T11:04:17;8.70;99.90
41080;DHT22;26826;50.718;7.114;2023-04-07T11:14:28;8.80;99.90
41080;DHT22;26826;50.718;7.114;2023-04-07T11:24:35;8.80;99.90
41080;DHT22;26826;50.718;7.114;2023-04-07T11:34:39;9.00;99.90
41080;DHT22;26826;50.718;7.114;2023-04-07T11:44:46;9.30;99.90
41080;DHT22;26826;50.718;7.114;2023-04-07T11:54:46;9.20;99.90
41080;DHT22;26826;50.718;7.114;2023-04-07T12:04:56;9.40;99.90
41080;DHT22;26826;50.718;7.114;2023-04-07T12:14:56;9.30;99.90
41080;DHT22;26826;50.718;7.114;2023-04-07T12:24:57;9.30;99.90
41080;DHT22;26826;50.718;7.114;2023-04-07T12:34:57;9.40;99.90
41080;DHT22;26826;50.718;7.114;2023-04-07T12:44:58;9.60;99.90
41080;DHT22;26826;50.718;7.114;2023-04-07T12:54:58;9.90;99.90
41080;DHT22;26826;50.718;7.114;2023-04-07T13:04:59;10.00;99.90
41080;DHT22;26826;50.718;7.114;2023-04-07T13:15:00;10.00;99.90
41080;DHT22;26826;50.718;7.114;2023-04-07T13:25:01;9.90;99.90
41080;DHT22;26826;50.718;7.114;2023-04-07T13:35:01;9.90;99.90
41080;DHT22;26826;50.718;7.114;2023-04-07T13:45:02;9.90;99.90
41080;DHT22;26826;50.718;7.114;2023-04-07T13:55:03;10.00;99.90
41080;DHT22;26826;50.718;7.114;2023-04-07T14:05:05;10.00;99.90
41080;DHT22;26826;50.718;7.114;2023-04-07T14:15:06;10.30;99.90
41080;DHT22;26826;50.718;7.114;2023-04-07T14:25:07;10.60;99.90
41080;DHT22;26826;50.718;7.114;2023-04-07T14:35:07;10.40;99.90
41080;DHT22;26826;50.718;7.114;2023-04-07T14:45:08;10.20;99.90
41080;DHT22;26826;50.718;7.114;2023-04-07T14:55:09;10.80;99.90
41080;DHT22;26826;50.718;7.114;2023-04-07T15:05:10;11.10;99.90
41080;DHT22;26826;50.718;7.114;2023-04-07T15:15:15;11.00;99.90
41080;DHT22;26826;50.718;7.114;2023-04-07T15:25:15;10.60;99.90
41080;DHT22;26826;50.718;7.114;2023-04-07T15:35:16;10.40;99.90
41080;DHT22;26826;50.718;7.114;2023-04-07T15:45:17;10.30;99.90
41080;DHT22;26826;50.718;7.114;2023-04-07T15:55:17;10.10;99.90
41080;DHT22;26826;50.718;7.114;2023-04-07T16:05:18;10.20;99.90
41080;DHT22;26826;50.718;7.114;2023-04-07T16:15:18;10.10;99.90
41080;DHT22;26826;50.718;7.114;2023-04-07T16:25:19;10.10;99.90
41080;DHT22;26826;50.718;7.114;2023-04-07T16:35:20;9.70;99.90
41080;DHT22;26826;50.718;7.114;2023-04-07T16:45:20;9.70;99.90
41080;DHT22;26826;50.718;7.114;2023-04-07T16:55:21;9.70;99.90
41080;DHT22;26826;50.718;7.114;2023-04-07T17:05:22;9.60;99.90
41080;DHT22;26826;50.718;7.114;2023-04-07T17:15:23;9.50;99.90
41080;DHT22;26826;50.718;7.114;2023-04-07T17:25:23;9.60;99.90
41080;DHT22;26826;50.718;7.114;2023-04-07T17:35:24;9.70;99.90
41080;DHT22;26826;50.718;7.114;2023-04-07T17:45:25;9.50;99.90
41080;DHT22;26826;50.718;7.114;2023-04-07T17:55:25;9.40;99.90
41080;DHT22;26826;50.718;7.114;2023-04-07T18:05:27;9.40;99.90
41080;DHT22;26826;50.718;7.114;2023-04-07T18:15:30;9.30;99.90
41080;DHT22;26826;50.718;7.114;2023-04-07T18:25:31;9.40;99.90
41080;DHT22;26826;50.718;7.114;2023-04-07T18:35:31;9.20;99.90
41080;DHT22;26826;50.718;7.114;2023-04-07T18:45:32;9.20;99.90
41080;DHT22;26826;50.718;7.114;2023-04-07T18:55:36;9.20;99.90
41080;DHT22;26826;50.718;7.114;2023-04-07T19:05:37;9.10;99.90
41080;DHT22;26826;50.718;7.114;2023-04-07T19:15:39;9.20;99.90
41080;DHT22;26826;50.718;7.114;2023-04-07T19:25:43;9.20;99.90
41080;DHT22;26826;50.718;7.114;2023-04-07T19:35:44;9.10;99.90
41080;DHT22;26826;50.718;7.114;2023-04-07T19:45:48;9.20;99.90
41080;DHT22;26826;50.718;7.114;2023-04-07T19:55:48;9.20;99.90
41080;DHT22;26826;50.718;7.114;2023-04-07T20:05:49;9.00;99.90
41080;DHT22;26826;50.718;7.114;2023-04-07T20:15:52;9.00;99.90
41080;DHT22;26826;50.718;7.114;2023-04-07T20:25:53;9.00;99.90
41080;DHT22;26826;50.718;7.114;2023-04-07T20:35:53;8.90;99.90
41080;DHT22;26826;50.718;7.114;2023-04-07T20:45:54;9.00;99.90
41080;DHT22;26826;50.718;7.114;2023-04-07T20:55:55;8.90;99.90
41080;DHT22;26826;50.718;7.114;2023-04-07T21:05:58;8.90;99.90
41080;DHT22;26826;50.718;7.114;2023-04-07T21:15:58;8.80;99.90
41080;DHT22;26826;50.718;7.114;2023-04-07T21:26:01;8.70;99.90
41080;DHT22;26826;50.718;7.114;2023-04-07T21:36:02;8.80;99.90
41080;DHT22;26826;50.718;7.114;2023-04-07T21:46:03;8.70;99.90
41080;DHT22;26826;50.718;7.114;2023-04-07T21:56:03;8.70;99.90
41080;DHT22;26826;50.718;7.114;2023-04-07T22:06:04;8.70;99.90
41080;DHT22;26826;50.718;7.114;2023-04-07T22:16:05;8.80;99.90
41080;DHT22;26826;50.718;7.114;2023-04-07T22:26:06;8.70;99.90
41080;DHT22;26826;50.718;7.114;2023-04-07T22:36:06;8.70;99.90
41080;DHT22;26826;50.718;7.114;2023-04-07T22:46:07;8.70;99.90
41080;DHT22;26826;50.718;7.114;2023-04-07T22:56:07;8.80;99.90
41080;DHT22;26826;50.718;7.114;2023-04-07T23:06:08;8.70;99.90
41080;DHT22;26826;50.718;7.114;2023-04-07T23:16:12;8.60;99.90
41080;DHT22;26826;50.718;7.114;2023-04-07T23:26:12;8.60;99.90
41080;DHT22;26826;50.718;7.114;2023-04-07T23:36:13;8.50;99.90
41080;DHT22;26826;50.718;7.114;2023-04-07T23:46:13;8.50;99.90
41080;DHT22;26826;50.718;7.114;2023-04-07T23:56:14;8.50;99.90
